Time;durP1;ratioP1;P1;durP2;ratioP2;P2;SDS_P1;SDS_P2;PMS_P1;PMS_P2;Temp;Humidity;BMP_temperature;BMP_pressure;BME280_temperature;BME280_humidity;BME280_pressure;Samples;Min_cycle;Max_cycle;Signal;HPM_P1;HPM_P2
2021/08/29 00:02:10;;;;;;;8.15;5.55;;;;;;;14.37;96.40;101546.50;5020796;28;20033;-45
2021/08/29 00:04:35;;;;;;;8.18;5.45;;;;;;;14.27;97.33;101545.56;5018340;28;20022;-45
2021/08/29 00:07:01;;;;;;;10.25;5.78;;;;;;;14.28;97.73;101541.78;5023053;28;20116;-45
2021/08/29 00:09:26;;;;;;;8.02;5.07;;;;;;;14.37;97.13;101541.09;5050675;22;20037;-84
2021/08/29 00:11:53;;;;;;;7.57;5.22;;;;;;;14.47;96.17;101538.53;5026450;28;20030;-83
2021/08/29 00:14:19;;;;;;;8.93;5.47;;;;;;;14.58;95.58;101542.16;5024804;28;20017;-83
2021/08/29 00:16:45;;;;;;;5.93;3.97;;;;;;;14.67;94.83;101535.19;5026500;28;20644;-83
2021/08/29 00:19:11;;;;;;;5.65;4.05;;;;;;;14.67;94.95;101539.78;5027385;28;20037;-83
2021/08/29 00:21:36;;;;;;;5.75;4.00;;;;;;;14.73;94.41;101539.59;5024190;28;20013;-83
2021/08/29 00:24:02;;;;;;;5.97;3.80;;;;;;;14.78;93.84;101547.72;5029338;28;20025;-82
2021/08/29 00:26:27;;;;;;;5.22;3.80;;;;;;;14.84;93.80;101545.06;5027890;28;20031;-83
2021/08/29 00:28:53;;;;;;;6.13;3.67;;;;;;;14.82;94.05;101543.44;5025457;28;20029;-83
2021/08/29 00:31:19;;;;;;;5.43;3.50;;;;;;;14.79;94.29;101549.34;5019791;28;20036;-83
2021/08/29 00:33:45;;;;;;;7.35;3.67;;;;;;;14.72;95.23;101545.22;5028228;28;20072;-84
2021/08/29 00:36:10;;;;;;;7.10;3.80;;;;;;;14.69;95.31;101545.72;5044974;28;20037;-83
2021/08/29 00:38:36;;;;;;;5.13;3.55;;;;;;;14.71;95.43;101535.50;5027917;28;20029;-83
2021/08/29 00:41:05;;;;;;;5.18;3.60;;;;;;;14.79;94.57;101535.84;5025672;28;20030;-83
2021/08/29 00:43:30;;;;;;;4.80;3.15;;;;;;;14.85;94.07;101541.28;5027204;28;20083;-84
2021/08/29 00:45:56;;;;;;;8.10;3.90;;;;;;;14.85;94.39;101542.09;5028196;28;20025;-83
2021/08/29 00:48:21;;;;;;;5.95;3.83;;;;;;;14.87;94.34;101544.53;5023441;28;20028;-84
2021/08/29 00:50:48;;;;;;;4.85;3.15;;;;;;;14.94;93.75;101545.16;5026438;28;20033;-82
2021/08/29 00:53:15;;;;;;;4.13;3.25;;;;;;;14.97;93.49;101545.44;5024449;28;20037;-84
2021/08/29 00:55:41;;;;;;;5.38;3.65;;;;;;;15.02;93.11;101541.97;5023967;28;20124;-83
2021/08/29 00:58:06;;;;;;;5.70;3.95;;;;;;;15.04;92.96;101539.81;5043266;28;20116;-84
2021/08/29 01:00:33;;;;;;;7.28;3.80;;;;;;;15.06;92.99;101537.69;5026418;28;20033;-83
2021/08/29 01:03:00;;;;;;;7.03;3.50;;;;;;;15.03;92.86;101540.91;5026189;28;20029;-83
2021/08/29 01:05:50;;;;;;;7.18;3.53;;;;;;;15.04;92.99;101529.03;5042700;28;20032;-84
2021/08/29 01:08:17;;;;;;;6.65;4.03;;;;;;;15.07;92.95;101529.31;5019050;28;20037;-83
2021/08/29 01:10:49;;;;;;;8.43;4.18;;;;;;;15.00;93.25;101528.75;5024288;28;20086;-84
2021/08/29 01:13:28;;;;;;;5.78;3.38;;;;;;;15.03;92.82;101532.81;5025499;28;20463;-85
2021/08/29 01:16:00;;;;;;;6.78;3.45;;;;;;;15.07;92.97;101528.50;5024999;28;20033;-83
2021/08/29 01:18:29;;;;;;;8.43;3.50;;;;;;;14.96;93.78;101529.53;5023066;28;20094;-83
2021/08/29 01:21:04;;;;;;;5.10;3.35;;;;;;;14.84;94.76;101529.69;5021593;28;20093;-85
2021/08/29 01:23:31;;;;;;;5.63;3.13;;;;;;;14.90;94.43;101528.69;5023123;28;20112;-84
2021/08/29 01:26:08;;;;;;;5.03;3.30;;;;;;;14.82;95.35;101543.44;5019202;28;20047;-84
2021/08/29 01:28:54;;;;;;;5.32;3.63;;;;;;;14.79;95.23;101533.16;5023443;28;20033;-83
2021/08/29 01:31:21;;;;;;;5.22;3.83;;;;;;;14.74;96.03;101530.44;5042488;28;20036;-83
2021/08/29 01:33:49;;;;;;;6.82;3.55;;;;;;;14.79;95.40;101529.66;5043618;28;20429;-83
2021/08/29 01:36:15;;;;;;;6.97;4.15;;;;;;;14.72;96.52;101524.47;5042386;28;20403;-84
2021/08/29 01:38:42;;;;;;;5.90;3.55;;;;;;;14.81;95.18;101522.94;5032833;28;20033;-84
2021/08/29 01:41:10;;;;;;;6.60;4.20;;;;;;;14.66;97.22;101519.28;5048794;28;20055;-84
2021/08/29 01:43:37;;;;;;;6.10;3.78;;;;;;;14.58;98.16;101530.53;5032514;28;20025;-83
2021/08/29 01:46:03;;;;;;;7.32;4.57;;;;;;;14.53;98.83;101528.59;5030718;28;20039;-84
2021/08/29 01:48:29;;;;;;;7.65;4.10;;;;;;;14.48;99.51;101523.16;5027145;28;20041;-83
2021/08/29 01:50:54;;;;;;;6.00;3.45;;;;;;;14.52;99.62;101525.09;5029432;28;20032;-83
2021/08/29 01:53:20;;;;;;;7.28;3.85;;;;;;;14.52;100.00;101522.38;5026342;28;20494;-84
2021/08/29 01:55:49;;;;;;;7.65;4.03;;;;;;;14.57;99.41;101518.94;5024459;28;20079;-83
2021/08/29 01:58:15;;;;;;;6.80;3.90;;;;;;;14.57;99.27;101518.94;5029435;28;20029;-83
2021/08/29 02:00:49;;;;;;;6.40;4.22;;;;;;;14.57;98.93;101524.34;5030241;28;20071;-83
2021/08/29 02:03:14;;;;;;;5.03;3.50;;;;;;;14.68;98.43;101522.53;5028040;28;20060;-84
2021/08/29 02:05:40;;;;;;;7.32;3.50;;;;;;;14.61;98.86;101519.25;5024517;28;20048;-83
2021/08/29 02:08:07;;;;;;;4.68;3.35;;;;;;;14.59;99.25;101522.19;5042161;28;20119;-83
2021/08/29 02:10:36;;;;;;;5.40;3.00;;;;;;;14.68;98.74;101517.13;5028170;28;20029;-83
2021/08/29 02:13:09;;;;;;;4.50;3.25;;;;;;;14.49;99.48;101519.38;5027821;28;20386;-83
2021/08/29 02:15:38;;;;;;;4.65;3.25;;;;;;;14.46;99.83;101517.22;5025443;28;20029;-83
2021/08/29 02:18:08;;;;;;;6.95;3.55;;;;;;;14.57;99.12;101515.44;5029238;28;20013;-84
2021/08/29 02:20:36;;;;;;;6.55;3.75;;;;;;;14.50;99.59;101515.63;5030645;28;20128;-82
2021/08/29 02:23:02;;;;;;;6.97;4.05;;;;;;;14.57;99.01;101518.94;5029654;28;20045;-83
2021/08/29 02:25:28;;;;;;;6.88;3.78;;;;;;;14.52;99.53;101519.69;5025405;28;20029;-83
2021/08/29 02:27:54;;;;;;;6.28;4.20;;;;;;;14.47;100.00;101518.84;5028145;28;20029;-83
2021/08/29 02:30:20;;;;;;;7.00;4.15;;;;;;;14.44;100.00;101511.25;5043018;28;20139;-83
2021/08/29 02:32:49;;;;;;;6.80;4.15;;;;;;;14.38;100.00;101507.69;5030810;28;20029;-84
2021/08/29 02:35:15;;;;;;;8.57;4.43;;;;;;;14.33;100.00;101504.91;5024376;28;20478;-84
2021/08/29 02:37:43;;;;;;;6.85;3.78;;;;;;;14.40;100.00;101502.03;5026861;28;20036;-84
2021/08/29 02:40:10;;;;;;;7.30;4.18;;;;;;;14.39;100.00;101501.22;5028913;28;20083;-84
2021/08/29 02:42:35;;;;;;;6.05;4.00;;;;;;;14.42;100.00;101499.91;5029054;28;20025;-82
2021/08/29 02:45:04;;;;;;;6.05;3.53;;;;;;;14.47;100.00;101492.69;5029719;28;20041;-83
2021/08/29 02:47:30;;;;;;;5.15;3.83;;;;;;;14.55;99.29;101494.13;5022865;28;20025;-84
2021/08/29 02:49:57;;;;;;;5.93;3.42;;;;;;;14.65;98.66;101490.69;5027849;28;20111;-84
2021/08/29 02:52:23;;;;;;;6.60;4.10;;;;;;;14.68;98.17;101488.28;5043565;28;20025;-84
2021/08/29 02:54:49;;;;;;;5.35;3.90;;;;;;;14.74;97.82;101506.16;5027022;28;20029;-83
2021/08/29 02:57:16;;;;;;;6.95;4.22;;;;;;;14.80;97.35;101497.03;5030301;28;20056;-84
2021/08/29 02:59:42;;;;;;;6.32;3.92;;;;;;;14.87;96.92;101498.69;5028539;28;20021;-83
2021/08/29 03:02:10;;;;;;;7.05;3.75;;;;;;;14.79;97.32;101506.19;5026716;28;20094;-84
2021/08/29 03:04:36;;;;;;;7.47;4.10;;;;;;;14.74;97.37;101508.03;5026114;28;20056;-84
2021/08/29 03:07:03;;;;;;;10.57;4.35;;;;;;;14.76;97.17;101505.88;5032028;28;20033;-83
2021/08/29 03:09:33;;;;;;;8.07;4.68;;;;;;;14.79;96.93;101510.78;5029171;28;20052;-85
2021/08/29 03:12:03;;;;;;;6.70;3.88;;;;;;;14.81;96.68;101509.44;5024325;28;20039;-84
2021/08/29 03:14:29;;;;;;;6.15;4.03;;;;;;;14.84;96.25;101510.00;5030340;28;20033;-84
2021/08/29 03:16:54;;;;;;;7.38;4.20;;;;;;;14.64;97.58;101514.16;5027518;28;20100;-84
2021/08/29 03:19:21;;;;;;;9.75;5.25;;;;;;;14.54;98.59;101505.94;5027600;28;20174;-83
2021/08/29 03:21:46;;;;;;;8.23;4.50;;;;;;;14.43;99.33;101498.81;5027887;28;20024;-84
2021/08/29 03:24:12;;;;;;;11.27;4.80;;;;;;;14.27;100.00;101497.03;5030922;28;20028;-83
2021/08/29 03:26:38;;;;;;;8.73;5.15;;;;;;;14.24;100.00;101502.94;5045274;28;20064;-83
2021/08/29 03:29:06;;;;;;;10.25;5.05;;;;;;;14.33;100.00;101501.41;5027280;28;20072;-83
2021/08/29 03:31:31;;;;;;;8.90;4.93;;;;;;;14.44;99.51;101498.59;5025798;28;20041;-83
2021/08/29 03:34:00;;;;;;;8.20;4.95;;;;;;;14.54;98.54;101503.25;5026335;28;20148;-83
2021/08/29 03:36:30;;;;;;;10.82;4.82;;;;;;;14.62;97.99;101499.28;5024592;28;20090;-82
2021/08/29 03:38:57;;;;;;;8.40;4.75;;;;;;;14.71;97.25;101503.13;5030267;28;20112;-82
2021/08/29 03:41:23;;;;;;;8.50;5.28;;;;;;;14.60;97.97;101504.94;5028488;28;20087;-83
2021/08/29 03:43:49;;;;;;;9.88;5.40;;;;;;;14.45;98.85;101497.53;5030467;28;20018;-83
2021/08/29 03:46:15;;;;;;;12.35;6.07;;;;;;;14.21;100.00;101499.69;5028566;28;20509;-83
2021/08/29 03:48:43;;;;;;;9.18;5.00;;;;;;;14.08;100.00;101494.69;5028591;28;20039;-82
2021/08/29 03:51:09;;;;;;;10.45;4.95;;;;;;;14.09;100.00;101490.13;5023473;28;20802;-82
2021/08/29 03:53:36;;;;;;;8.40;5.10;;;;;;;14.12;100.00;101501.19;5023874;28;20112;-82
2021/08/29 03:56:02;;;;;;;9.90;4.85;;;;;;;14.12;100.00;101511.16;5024469;28;20024;-82
2021/08/29 03:58:27;;;;;;;7.63;4.22;;;;;;;14.03;100.00;101489.25;5024710;28;20051;-82
2021/08/29 04:00:53;;;;;;;11.43;5.28;;;;;;;13.93;100.00;101491.81;5029979;28;20017;-82
2021/08/29 04:03:19;;;;;;;11.30;5.03;;;;;;;13.85;100.00;101490.41;5030084;28;20390;-83
2021/08/29 04:05:45;;;;;;;10.15;4.40;;;;;;;13.96;100.00;101488.63;5027962;28;20029;-84
2021/08/29 04:08:16;;;;;;;8.85;4.40;;;;;;;14.06;100.00;101485.25;5025535;28;20090;-83
2021/08/29 04:10:43;;;;;;;8.18;4.20;;;;;;;14.03;100.00;101494.66;5028734;28;20609;-83
2021/08/29 04:13:11;;;;;;;6.78;4.00;;;;;;;14.13;100.00;101497.44;5049453;28;20018;-84
2021/08/29 04:15:38;;;;;;;6.95;4.07;;;;;;;14.27;100.00;101499.75;5038661;28;20076;-85
2021/08/29 04:18:06;;;;;;;7.35;4.57;;;;;;;14.37;100.00;101497.16;5044205;28;20025;-83
2021/08/29 04:20:32;;;;;;;6.00;3.67;;;;;;;14.43;100.00;101496.97;5041002;28;20029;-83
2021/08/29 04:22:58;;;;;;;10.93;5.88;;;;;;;14.39;100.00;101495.81;5044544;28;20032;-83
2021/08/29 04:25:24;;;;;;;7.25;4.45;;;;;;;14.47;100.00;101500.78;5039886;28;20120;-85
2021/08/29 04:27:49;;;;;;;9.30;4.25;;;;;;;14.48;99.85;101497.00;5039840;28;20059;-83
2021/08/29 04:30:16;;;;;;;6.90;3.78;;;;;;;14.54;99.16;101499.75;5036686;28;20029;-84
2021/08/29 04:32:48;;;;;;;6.18;3.80;;;;;;;14.51;99.07;101503.78;5043608;28;20033;-85
2021/08/29 04:35:13;;;;;;;6.10;3.70;;;;;;;14.41;99.40;101509.88;5046969;28;20055;-84
2021/08/29 04:37:39;;;;;;;8.18;4.00;;;;;;;14.31;100.00;101503.53;5046423;28;20037;-83
2021/08/29 04:40:05;;;;;;;8.57;4.07;;;;;;;14.47;99.08;101499.97;5065226;28;20017;-84
2021/08/29 04:42:30;;;;;;;7.50;4.63;;;;;;;14.50;98.83;101515.63;5043592;28;20048;-85
2021/08/29 04:44:56;;;;;;;7.18;4.32;;;;;;;14.57;98.48;101513.56;5046988;28;20014;-84
2021/08/29 04:47:21;;;;;;;6.70;3.70;;;;;;;14.60;98.07;101515.72;5039037;28;20037;-85
2021/08/29 04:49:47;;;;;;;5.40;3.33;;;;;;;14.52;98.30;101517.00;5022246;28;20025;-85
2021/08/29 04:52:12;;;;;;;6.57;3.70;;;;;;;14.34;99.74;101513.81;5028134;28;20036;-83
2021/08/29 04:54:38;;;;;;;6.60;3.95;;;;;;;14.40;99.34;101513.63;5028863;28;20538;-85
2021/08/29 04:57:04;;;;;;;7.85;4.60;;;;;;;14.51;98.64;101514.56;5028116;28;20041;-85
2021/08/29 04:59:29;;;;;;;8.52;4.85;;;;;;;14.60;98.13;101518.44;5028328;28;20059;-85
2021/08/29 05:01:55;;;;;;;8.90;3.92;;;;;;;14.67;97.90;101515.50;5026810;28;20021;-84
2021/08/29 05:04:20;;;;;;;5.47;3.42;;;;;;;14.69;97.66;101511.47;5030923;28;20096;-86
2021/08/29 05:06:46;;;;;;;5.53;3.80;;;;;;;14.76;97.06;101512.09;5030649;28;20040;-86
2021/08/29 05:09:11;;;;;;;5.63;3.67;;;;;;;14.82;96.92;101504.84;5028863;28;20067;-85
2021/08/29 05:11:37;;;;;;;6.18;3.53;;;;;;;14.89;96.33;101510.03;5041901;28;20095;-85
2021/08/29 05:14:02;;;;;;;9.55;4.47;;;;;;;14.98;95.68;101509.31;5045119;28;20025;-85
2021/08/29 05:16:28;;;;;;;6.18;3.72;;;;;;;14.88;96.00;101513.78;5031366;28;20090;-84
2021/08/29 05:18:53;;;;;;;7.35;3.70;;;;;;;14.69;96.96;101508.78;5033385;28;20052;-84
2021/08/29 05:21:19;;;;;;;10.23;4.78;;;;;;;14.51;98.69;101506.47;5046876;28;20032;-85
2021/08/29 05:23:45;;;;;;;8.00;4.18;;;;;;;14.43;99.51;101512.31;5027556;28;20471;-83
2021/08/29 05:26:10;;;;;;;8.68;4.00;;;;;;;14.63;98.38;101512.53;5025257;28;20033;-84
2021/08/29 05:28:36;;;;;;;6.65;3.22;;;;;;;14.69;97.68;101521.47;5042498;28;20032;-85
2021/08/29 05:31:01;;;;;;;6.70;3.55;;;;;;;14.87;97.09;101522.97;5034199;28;20024;-83
2021/08/29 05:33:27;;;;;;;5.88;3.53;;;;;;;14.94;96.24;101515.47;5032731;28;20559;-85
2021/08/29 05:35:53;;;;;;;8.00;4.03;;;;;;;14.98;95.96;101519.28;5031223;28;20037;-85
2021/08/29 05:38:18;;;;;;;8.43;3.95;;;;;;;14.77;96.80;101515.63;5027942;28;20172;-83
2021/08/29 05:40:44;;;;;;;7.78;4.03;;;;;;;14.72;98.12;101518.25;5032758;28;21970;-84
2021/08/29 05:43:09;;;;;;;10.90;4.25;;;;;;;14.69;99.24;101522.28;5048419;28;20067;-85
2021/08/29 05:45:35;;;;;;;6.43;3.80;;;;;;;14.68;99.96;101519.84;5024936;28;20024;-83
2021/08/29 05:48:00;;;;;;;8.27;4.10;;;;;;;14.72;99.51;101524.47;5027777;28;20398;-84
2021/08/29 05:50:26;;;;;;;5.47;3.45;;;;;;;14.94;98.68;101529.78;5022827;28;20057;-84
2021/08/29 05:52:51;;;;;;;6.85;3.70;;;;;;;15.11;97.79;101525.06;5050774;28;20033;-84
2021/08/29 05:55:16;;;;;;;5.50;3.58;;;;;;;15.13;97.25;101519.41;5031027;28;20025;-83
2021/08/29 05:57:42;;;;;;;5.55;3.22;;;;;;;15.28;96.78;101524.09;5030164;28;20026;-82
2021/08/29 06:00:08;;;;;;;5.65;3.10;;;;;;;15.24;96.46;101523.78;5029908;28;20036;-82
2021/08/29 06:02:34;;;;;;;3.60;2.58;;;;;;;15.33;96.39;101514.13;5022124;28;21663;-82
2021/08/29 06:05:01;;;;;;;5.88;2.50;;;;;;;15.13;97.40;101505.09;5043968;28;20017;-82
2021/08/29 06:07:26;;;;;;;3.40;1.98;;;;;;;15.31;97.17;101502.78;5025281;28;20124;-82
2021/08/29 06:09:52;;;;;;;3.72;1.80;;;;;;;15.32;96.76;101507.09;5049565;28;20053;-84
2021/08/29 06:12:17;;;;;;;2.28;1.60;;;;;;;15.30;96.51;101497.63;5038575;28;20100;-83
2021/08/29 06:14:44;;;;;;;2.60;2.00;;;;;;;15.12;97.62;101498.88;5026422;28;20025;-84
2021/08/29 06:17:10;;;;;;;3.28;1.90;;;;;;;15.16;98.12;101496.47;5030054;28;20021;-83
2021/08/29 06:19:35;;;;;;;1.77;1.40;;;;;;;15.32;97.41;101499.00;5027742;28;20491;-83
2021/08/29 06:22:01;;;;;;;3.10;1.25;;;;;;;15.36;97.13;101499.28;5029013;28;20437;-83
2021/08/29 06:24:26;;;;;;;2.15;1.27;;;;;;;15.19;98.15;101502.16;5031098;28;20020;-84
2021/08/29 06:26:52;;;;;;;0.75;0.70;;;;;;;15.13;98.31;101505.91;5030360;28;20044;-85
2021/08/29 06:29:18;;;;;;;1.83;1.08;;;;;;;15.37;97.52;101507.13;5046903;28;20022;-84
2021/08/29 06:31:44;;;;;;;2.13;0.80;;;;;;;15.42;97.06;101503.63;5028810;28;20033;-84
2021/08/29 06:34:13;;;;;;;2.05;0.60;;;;;;;15.24;97.66;101502.16;5046681;28;20627;-84
2021/08/29 06:36:38;;;;;;;1.20;0.73;;;;;;;15.39;98.19;101499.56;5028429;28;20242;-84
2021/08/29 06:39:04;;;;;;;2.45;0.80;;;;;;;15.42;98.22;101501.75;5030354;28;20025;-83
2021/08/29 06:41:30;;;;;;;0.80;0.60;;;;;;;15.62;96.98;101502.97;5034574;28;20028;-84
2021/08/29 06:43:56;;;;;;;0.65;0.45;;;;;;;15.70;96.96;101489.75;5026667;28;20024;-83
2021/08/29 06:46:22;;;;;;;0.95;0.55;;;;;;;15.93;95.48;101488.47;5023054;28;20118;-83
2021/08/29 06:48:47;;;;;;;1.27;0.60;;;;;;;16.07;94.71;101482.59;5025005;28;20056;-84
2021/08/29 06:51:13;;;;;;;1.67;0.57;;;;;;;16.29;93.18;101481.28;5024195;28;20467;-84
2021/08/29 06:53:38;;;;;;;2.92;0.70;;;;;;;16.25;93.15;101468.56;5027298;28;20021;-84
2021/08/29 06:56:04;;;;;;;2.00;0.98;;;;;;;16.48;92.20;101470.75;5020334;28;20036;-83
2021/08/29 06:58:35;;;;;;;1.10;0.50;;;;;;;16.57;91.04;101476.44;5019245;28;20625;-82
2021/08/29 07:01:01;;;;;;;0.40;0.40;;;;;;;16.65;90.83;101472.38;5019101;28;20052;-84
2021/08/29 07:03:26;;;;;;;0.90;0.60;;;;;;;16.22;91.70;101480.72;5044151;28;20599;-83
2021/08/29 07:05:52;;;;;;;0.57;0.50;;;;;;;16.04;93.53;101467.72;5026174;28;20048;-83
2021/08/29 07:08:17;;;;;;;0.55;0.55;;;;;;;16.05;93.75;101479.34;5014160;28;20025;-82
2021/08/29 07:10:43;;;;;;;0.77;0.77;;;;;;;15.87;94.65;101473.34;5021000;28;20070;-83
2021/08/29 07:13:09;;;;;;;0.80;0.80;;;;;;;15.88;95.12;101474.97;5034222;28;20017;-83
2021/08/29 07:15:34;;;;;;;0.93;0.60;;;;;;;16.11;94.52;101468.25;5018294;28;20090;-84
2021/08/29 07:18:00;;;;;;;0.60;0.60;;;;;;;16.22;93.31;101469.09;5018002;28;20082;-84
2021/08/29 07:20:26;;;;;;;0.40;0.40;;;;;;;16.24;93.15;101469.66;5026713;28;20020;-84
2021/08/29 07:22:51;;;;;;;0.50;0.35;;;;;;;16.00;93.08;101480.16;5040526;28;20040;-84
2021/08/29 07:25:17;;;;;;;0.75;0.60;;;;;;;16.39;92.58;101480.47;5023616;28;20025;-85
2021/08/29 07:27:45;;;;;;;1.08;0.70;;;;;;;16.65;91.86;101494.00;5021404;28;20035;-84
2021/08/29 07:30:11;;;;;;;0.95;0.80;;;;;;;16.70;90.96;101496.78;5020163;28;20025;-84
2021/08/29 07:32:39;;;;;;;3.90;1.42;;;;;;;16.78;89.72;101491.63;5025620;28;20049;-84
2021/08/29 07:35:10;;;;;;;1.90;1.70;;;;;;;16.72;90.33;101492.72;5022358;28;20057;-85
2021/08/29 07:37:36;;;;;;;2.63;2.10;;;;;;;17.01;89.45;101498.34;5022941;28;20029;-83
2021/08/29 07:40:03;;;;;;;3.55;3.10;;;;;;;17.06;88.73;101495.66;5020737;28;20055;-84
2021/08/29 07:42:31;;;;;;;4.45;3.08;;;;;;;16.99;88.48;101500.53;5026024;28;20020;-84
2021/08/29 07:44:56;;;;;;;3.90;3.50;;;;;;;16.71;88.32;101501.09;5025868;28;20025;-83
2021/08/29 07:47:24;;;;;;;3.05;2.75;;;;;;;16.79;88.43;101490.53;5041843;28;20430;-82
2021/08/29 07:49:53;;;;;;;2.90;2.55;;;;;;;17.18;87.70;101501.59;5022328;28;20082;-83
2021/08/29 07:52:18;;;;;;;2.08;1.60;;;;;;;17.41;86.46;101502.06;5022474;28;20025;-82
2021/08/29 07:54:51;;;;;;;2.25;1.15;;;;;;;17.85;85.57;101501.41;5035928;28;20029;-82
2021/08/29 07:57:17;;;;;;;0.80;0.40;;;;;;;17.34;84.86;101506.97;5026722;28;20582;-83
2021/08/29 07:59:43;;;;;;;0.40;0.40;;;;;;;16.99;86.97;101503.25;5021671;28;20061;-81
2021/08/29 08:02:08;;;;;;;0.73;0.30;;;;;;;17.64;85.69;101512.31;5030274;28;20555;-82
2021/08/29 08:04:34;;;;;;;1.27;0.30;;;;;;;17.45;84.81;101509.38;5024771;28;20052;-82
2021/08/29 08:06:59;;;;;;;0.25;0.25;;;;;;;17.26;84.47;101515.66;5029104;28;20025;-82
2021/08/29 08:09:25;;;;;;;0.30;0.30;;;;;;;17.49;84.43;101518.59;5032215;28;20221;-83
2021/08/29 08:11:50;;;;;;;0.40;0.40;;;;;;;17.55;83.58;101516.66;5021084;28;20044;-83
2021/08/29 08:14:18;;;;;;;1.08;0.40;;;;;;;17.36;84.39;101512.91;5020798;28;20176;-83
2021/08/29 08:16:44;;;;;;;0.43;0.43;;;;;;;17.78;83.98;101510.66;5018027;28;20024;-83
2021/08/29 08:19:12;;;;;;;0.52;0.38;;;;;;;17.64;83.24;101515.03;5022592;28;20036;-84
2021/08/29 08:21:37;;;;;;;0.32;0.32;;;;;;;17.87;82.99;101515.50;5023745;28;20029;-83
2021/08/29 08:24:03;;;;;;;0.47;0.47;;;;;;;17.98;81.59;101522.50;5015888;28;20021;-83
2021/08/29 08:26:32;;;;;;;0.40;0.40;;;;;;;18.24;80.97;101518.56;5018033;28;20071;-83
2021/08/29 08:28:59;;;;;;;0.73;0.40;;;;;;;18.48;80.25;101512.41;5021613;28;20084;-83
2021/08/29 08:32:00;;;;;;;;;;;;;;;;;;;;;
2021/08/29 08:34:26;;;;;;;0.60;0.25;;;;;;;18.59;78.50;101516.69;5034342;28;20040;-84
2021/08/29 08:36:52;;;;;;;0.65;0.30;;;;;;;18.87;78.31;101513.25;5024468;28;20624;-82
2021/08/29 08:39:17;;;;;;;0.40;0.22;;;;;;;18.65;77.82;101510.97;5019347;28;20030;-83
2021/08/29 08:41:43;;;;;;;0.20;0.20;;;;;;;18.72;77.57;101507.94;5041439;28;20565;-83
2021/08/29 08:44:12;;;;;;;0.22;0.22;;;;;;;18.96;77.66;101516.94;5027696;28;20096;-83
2021/08/29 08:46:41;;;;;;;0.25;0.25;;;;;;;19.22;76.36;101516.72;5023812;28;20479;-83
2021/08/29 08:49:08;;;;;;;1.35;0.30;;;;;;;18.65;78.30;101496.56;5024992;28;20041;-84
2021/08/29 08:51:45;;;;;;;0.38;0.35;;;;;;;18.95;77.99;101496.31;5025493;28;20029;-83
2021/08/29 08:54:21;;;;;;;0.20;0.20;;;;;;;18.81;77.87;101489.13;5046058;28;20017;-85
2021/08/29 08:56:47;;;;;;;0.20;0.20;;;;;;;18.76;77.38;101494.59;5037810;28;20395;-85
2021/08/29 08:59:23;;;;;;;0.57;0.40;;;;;;;19.09;76.75;101491.03;5021139;28;20036;-85
2021/08/29 09:01:49;;;;;;;0.30;0.30;;;;;;;19.11;76.73;101490.75;5025756;28;20025;-84
2021/08/29 09:04:16;;;;;;;0.30;0.30;;;;;;;19.29;75.59;101498.97;5023956;28;20036;-83
2021/08/29 09:06:43;;;;;;;0.20;0.20;;;;;;;19.43;75.46;101507.25;5024018;28;20030;-82
2021/08/29 09:09:08;;;;;;;0.30;0.30;;;;;;;19.50;75.13;101505.00;5023891;28;20052;-83
2021/08/29 09:11:35;;;;;;;0.30;0.30;;;;;;;19.50;74.49;101504.19;5025404;28;20075;-82
2021/08/29 09:14:01;;;;;;;0.32;0.32;;;;;;;19.65;73.95;101498.59;5025332;28;20136;-83
2021/08/29 09:16:29;;;;;;;0.65;0.60;;;;;;;19.48;73.72;101504.47;5030852;28;20017;-82
2021/08/29 09:19:00;;;;;;;1.27;1.00;;;;;;;19.57;73.47;101505.50;5018940;28;20063;-82
2021/08/29 09:21:29;;;;;;;0.50;0.50;;;;;;;19.13;74.16;101499.41;5020192;28;20028;-83
2021/08/29 09:23:57;;;;;;;0.40;0.40;;;;;;;19.03;74.78;101497.63;5027426;28;20025;-82
2021/08/29 09:26:24;;;;;;;0.98;0.40;;;;;;;19.20;73.32;101500.69;5015780;28;20442;-82
2021/08/29 09:28:54;;;;;;;0.47;0.47;;;;;;;19.43;73.36;101496.38;5023352;28;20456;-82
2021/08/29 09:31:20;;;;;;;0.80;0.60;;;;;;;19.38;73.33;101496.41;5038932;28;20327;-83
2021/08/29 09:34:02;;;;;;;0.30;0.30;;;;;;;18.75;74.50;101496.50;5021849;28;20312;-83
2021/08/29 09:36:32;;;;;;;0.30;0.30;;;;;;;18.87;74.87;101502.38;5025467;28;20021;-82
2021/08/29 09:39:14;;;;;;;0.40;0.40;;;;;;;19.05;74.29;101498.16;5025380;28;20111;-82
2021/08/29 09:41:41;;;;;;;0.40;0.40;;;;;;;18.70;76.53;101493.84;5028922;28;20029;-82
2021/08/29 09:44:10;;;;;;;0.32;0.32;;;;;;;18.21;78.98;101502.84;5024408;28;20830;-82
2021/08/29 09:47:04;;;;;;;0.50;0.50;;;;;;;17.96;81.23;101509.22;5025012;28;20123;-82
2021/08/29 09:49:32;;;;;;;0.82;0.60;;;;;;;17.86;80.64;101501.13;5025689;28;20103;-82
2021/08/29 09:51:59;;;;;;;0.70;0.50;;;;;;;17.51;81.79;101502.84;5019036;28;20608;-82
2021/08/29 09:54:41;;;;;;;1.30;0.60;;;;;;;17.69;80.42;101498.75;5036430;28;20472;-82
2021/08/29 09:57:09;;;;;;;0.70;0.65;;;;;;;18.38;78.72;101484.28;5023785;28;20301;-82
2021/08/29 09:59:42;;;;;;;0.82;0.50;;;;;;;19.23;76.28;101485.75;5040092;28;20043;-82
2021/08/29 10:02:09;;;;;;;1.27;0.57;;;;;;;19.88;73.12;101472.47;5028347;28;20039;-82
2021/08/29 10:04:35;;;;;;;0.77;0.52;;;;;;;20.11;70.24;101481.69;5024377;28;20029;-83
2021/08/29 10:07:17;;;;;;;0.98;0.50;;;;;;;19.67;72.96;101474.66;5040146;28;20040;-82
2021/08/29 10:09:45;;;;;;;0.77;0.60;;;;;;;20.49;71.68;101477.88;5022316;28;20025;-82
2021/08/29 10:12:11;;;;;;;0.70;0.70;;;;;;;20.32;65.33;101476.75;5043671;28;20033;-82
2021/08/29 10:14:38;;;;;;;0.40;0.40;;;;;;;20.62;65.03;101473.56;5037747;28;20446;-82
2021/08/29 10:17:04;;;;;;;0.70;0.63;;;;;;;20.70;63.54;101472.09;5039772;28;20025;-82
2021/08/29 10:19:32;;;;;;;1.33;0.55;;;;;;;20.78;64.21;101472.19;5040094;28;20379;-83
2021/08/29 10:21:59;;;;;;;0.82;0.50;;;;;;;21.49;62.05;101466.53;5025735;28;20017;-82
2021/08/29 10:24:31;;;;;;;0.93;0.68;;;;;;;21.83;60.21;101466.09;5025127;28;20482;-83
2021/08/29 10:27:02;;;;;;;0.68;0.40;;;;;;;22.04;60.18;101461.78;5024381;28;20040;-82
2021/08/29 10:29:34;;;;;;;0.75;0.43;;;;;;;21.53;60.72;101467.53;5038410;28;20030;-83
2021/08/29 10:32:13;;;;;;;0.50;0.50;;;;;;;21.41;61.53;101470.78;5020118;28;20020;-83
2021/08/29 10:34:39;;;;;;;2.10;0.50;;;;;;;21.11;60.65;101466.69;5024307;28;20099;-83
2021/08/29 10:37:04;;;;;;;0.73;0.50;;;;;;;20.47;63.38;101471.91;5041289;28;20028;-82
2021/08/29 10:39:30;;;;;;;0.90;0.50;;;;;;;19.92;64.49;101473.50;5025697;28;20044;-82
2021/08/29 10:41:58;;;;;;;0.50;0.50;;;;;;;19.71;66.14;101469.44;5020265;28;20040;-83
2021/08/29 10:44:24;;;;;;;1.38;0.73;;;;;;;19.64;66.87;101469.78;5021164;28;20167;-82
2021/08/29 10:46:50;;;;;;;1.13;0.50;;;;;;;19.41;67.59;101471.41;5026966;28;20044;-82
2021/08/29 10:49:17;;;;;;;0.88;0.45;;;;;;;19.58;67.18;101457.38;5018832;28;20025;-82
2021/08/29 10:51:46;;;;;;;1.73;0.52;;;;;;;19.79;67.28;101466.88;5020004;28;20036;-82
2021/08/29 10:54:13;;;;;;;0.40;0.40;;;;;;;19.86;67.55;101463.78;5038900;28;20119;-82
2021/08/29 10:56:41;;;;;;;0.52;0.50;;;;;;;19.84;67.32;101463.28;5028412;28;20025;-81
2021/08/29 10:59:09;;;;;;;0.52;0.50;;;;;;;19.81;68.14;101459.25;5042803;28;20025;-83
2021/08/29 11:01:39;;;;;;;1.27;0.50;;;;;;;19.88;68.13;101458.88;5017955;28;20166;-82
2021/08/29 11:04:17;;;;;;;1.02;0.30;;;;;;;19.60;68.86;101460.63;5029936;28;20020;-81
2021/08/29 11:06:47;;;;;;;0.50;0.50;;;;;;;19.72;69.21;101462.88;5027293;28;20031;-82
2021/08/29 11:09:34;;;;;;;0.68;0.40;;;;;;;19.78;69.31;101468.00;5025003;28;20021;-82
2021/08/29 11:12:30;;;;;;;1.05;0.50;;;;;;;19.60;69.63;101460.63;5017168;28;20029;-82
2021/08/29 11:14:59;;;;;;;0.88;0.60;;;;;;;19.42;70.50;101464.06;5014590;28;20041;-82
2021/08/29 11:17:30;;;;;;;0.55;0.55;;;;;;;18.99;71.78;101464.78;5028076;28;20031;-82
2021/08/29 11:20:10;;;;;;;0.57;0.57;;;;;;;18.53;74.59;101463.56;5025961;28;20025;-82
2021/08/29 11:22:48;;;;;;;0.68;0.65;;;;;;;18.48;75.09;101456.25;5027230;28;20033;-82
2021/08/29 11:25:22;;;;;;;1.17;0.60;;;;;;;18.11;76.53;101451.38;5026209;28;20059;-82
2021/08/29 11:27:54;;;;;;;2.35;0.73;;;;;;;18.14;77.11;101450.81;5024957;28;20051;-82